sensor_id;sensor_type;location;lat;lon;timestamp;pressure;altitude;pressure_sealevel;temperature;humidity
74437;BME280;62868;52.360;30.424;2023-05-10T00:01:37;1037.3;;;4.9;46.3
74437;BME280;62868;52.360;30.424;2023-05-10T00:06:41;1037.3;;;4.9;46.4
74437;BME280;62868;52.360;30.424;2023-05-10T00:11:17;1037.3;;;4.8;46.5
74437;BME280;62868;52.360;30.424;2023-05-10T00:16:53;1037.3;;;4.8;46.7
74437;BME280;62868;52.360;30.424;2023-05-10T00:21:41;1037.4;;;4.8;46.7
74437;BME280;62868;52.360;30.424;2023-05-10T00:27:03;1037.4;;;4.7;46.8
74437;BME280;62868;52.360;30.424;2023-05-10T00:31:43;1037.4;;;4.7;46.9
74437;BME280;62868;52.360;30.424;2023-05-10T00:36:17;1037.4;;;4.6;47.1
74437;BME280;62868;52.360;30.424;2023-05-10T00:41:33;1037.4;;;4.6;47.2
74437;BME280;62868;52.360;30.424;2023-05-10T00:47:01;1037.4;;;4.6;47.4
74437;BME280;62868;52.360;30.424;2023-05-10T00:52:01;1037.4;;;4.5;47.6
74437;BME280;62868;52.360;30.424;2023-05-10T00:56:41;1037.4;;;4.5;47.7
74437;BME280;62868;52.360;30.424;2023-05-10T01:01:19;1037.4;;;4.5;47.8
74437;BME280;62868;52.360;30.424;2023-05-10T01:06:27;1037.4;;;4.5;47.8
74437;BME280;62868;52.360;30.424;2023-05-10T01:11:35;1037.4;;;4.4;47.9
74437;BME280;62868;52.360;30.424;2023-05-10T01:16:41;1037.4;;;4.4;48
74437;BME280;62868;52.360;30.424;2023-05-10T01:21:19;1037.4;;;4.3;48.1
74437;BME280;62868;52.360;30.424;2023-05-10T01:27:01;1037.4;;;4.3;48.3
74437;BME280;62868;52.360;30.424;2023-05-10T01:32:06;1037.4;;;4.2;48.3
74437;BME280;62868;52.360;30.424;2023-05-10T01:36:19;1037.4;;;4.2;48.5
74437;BME280;62868;52.360;30.424;2023-05-10T01:41:47;1037.4;;;4.2;48.6
74437;BME280;62868;52.360;30.424;2023-05-10T01:47:01;1037.4;;;4.2;48.7
74437;BME280;62868;52.360;30.424;2023-05-10T01:51:50;1037.4;;;4.1;48.7
74437;BME280;62868;52.360;30.424;2023-05-10T01:56:37;1037.4;;;4.1;48.8
74437;BME280;62868;52.360;30.424;2023-05-10T02:02:01;1037.3;;;4.1;48.9
74437;BME280;62868;52.360;30.424;2023-05-10T02:07:01;1037.3;;;4.1;48.9
74437;BME280;62868;52.360;30.424;2023-05-10T02:12:02;1037.3;;;4.1;49
74437;BME280;62868;52.360;30.424;2023-05-10T02:16:26;1037.4;;;4.1;49.1
74437;BME280;62868;52.360;30.424;2023-05-10T02:21:59;1037.3;;;4.2;49.1
74437;BME280;62868;52.360;30.424;2023-05-10T02:26:51;1037.3;;;4.2;49.1
74437;BME280;62868;52.360;30.424;2023-05-10T02:31:17;1037.3;;;4.3;49.1
74437;BME280;62868;52.360;30.424;2023-05-10T02:36:17;1037.3;;;4.4;49
74437;BME280;62868;52.360;30.424;2023-05-10T02:41:59;1037.3;;;4.6;48.9
74437;BME280;62868;52.360;30.424;2023-05-10T02:46:27;1037.3;;;4.8;48.8
74437;BME280;62868;52.360;30.424;2023-05-10T02:52:01;1037.3;;;5.3;48.4
74437;BME280;62868;52.360;30.424;2023-05-10T02:57:03;1037.2;;;9.1;44.5
74437;BME280;62868;52.360;30.424;2023-05-10T03:01:17;1037.1;;;12.6;41.4
74437;BME280;62868;52.360;30.424;2023-05-10T03:06:25;1037.1;;;14.3;40.3
74437;BME280;62868;52.360;30.424;2023-05-10T03:11:23;1037.1;;;15.8;39.4
74437;BME280;62868;52.360;30.424;2023-05-10T03:16:29;1037.1;;;18.6;36.8
74437;BME280;62868;52.360;30.424;2023-05-10T03:21:53;1037.1;;;20.8;35.2
74437;BME280;62868;52.360;30.424;2023-05-10T03:26:18;1037.1;;;22.5;34
74437;BME280;62868;52.360;30.424;2023-05-10T03:31:17;1037.1;;;24.5;32.3
74437;BME280;62868;52.360;30.424;2023-05-10T03:36:45;1037;;;26.3;30.8
74437;BME280;62868;52.360;30.424;2023-05-10T03:42:01;1037;;;27.5;29.4
74437;BME280;62868;52.360;30.424;2023-05-10T03:46:33;1037;;;28.4;28.4
74437;BME280;62868;52.360;30.424;2023-05-10T03:51:37;1037;;;28.9;27
74437;BME280;62868;52.360;30.424;2023-05-10T03:56:17;1037;;;29.6;25.7
74437;BME280;62868;52.360;30.424;2023-05-10T04:02:01;1037;;;29.6;24.8
74437;BME280;62868;52.360;30.424;2023-05-10T04:06:17;1037.1;;;26.8;26.2
74437;BME280;62868;52.360;30.424;2023-05-10T04:11:33;1037.1;;;23.1;29.2
74437;BME280;62868;52.360;30.424;2023-05-10T04:16:45;1037.2;;;21;30.5
74437;BME280;62868;52.360;30.424;2023-05-10T04:21:27;1037.3;;;19.6;31.2
74437;BME280;62868;52.360;30.424;2023-05-10T04:26:27;1037.3;;;18.6;31.5
74437;BME280;62868;52.360;30.424;2023-05-10T04:31:51;1037.3;;;17.6;31.9
74437;BME280;62868;52.360;30.424;2023-05-10T04:37:01;1037.3;;;16.6;32.2
74437;BME280;62868;52.360;30.424;2023-05-10T04:41:17;1037.4;;;15.9;32.4
74437;BME280;62868;52.360;30.424;2023-05-10T04:46:43;1037.4;;;15.4;32.6
74437;BME280;62868;52.360;30.424;2023-05-10T04:51:51;1037.3;;;15;32.8
74437;BME280;62868;52.360;30.424;2023-05-10T04:56:49;1037.3;;;15.2;32.7
74437;BME280;62868;52.360;30.424;2023-05-10T05:01:35;1037.4;;;15.3;32.7
74437;BME280;62868;52.360;30.424;2023-05-10T05:06:19;1037.4;;;15.3;32.8
74437;BME280;62868;52.360;30.424;2023-05-10T05:11:57;1037.4;;;15.5;32.7
74437;BME280;62868;52.360;30.424;2023-05-10T05:16:59;1037.4;;;15.4;32.7
74437;BME280;62868;52.360;30.424;2023-05-10T05:21:18;1037.4;;;15.5;32.7
74437;BME280;62868;52.360;30.424;2023-05-10T05:26:59;1037.4;;;15.6;32.6
74437;BME280;62868;52.360;30.424;2023-05-10T05:31:49;1037.4;;;15.5;32.6
74437;BME280;62868;52.360;30.424;2023-05-10T05:36:27;1037.3;;;15.7;32.5
74437;BME280;62868;52.360;30.424;2023-05-10T05:41:17;1037.3;;;15.9;32.4
74437;BME280;62868;52.360;30.424;2023-05-10T05:46:59;1037.3;;;16.2;32.2
74437;BME280;62868;52.360;30.424;2023-05-10T05:51:25;1037.2;;;16.6;32
74437;BME280;62868;52.360;30.424;2023-05-10T05:56:49;1037.2;;;16.7;31.8
74437;BME280;62868;52.360;30.424;2023-05-10T06:01:59;1037.2;;;16.8;31.6
74437;BME280;62868;52.360;30.424;2023-05-10T06:06:27;1037.2;;;17.1;31.4
74437;BME280;62868;52.360;30.424;2023-05-10T06:11:33;1037.2;;;17.4;31.1
74437;BME280;62868;52.360;30.424;2023-05-10T06:16:39;1037.2;;;17.7;30.8
74437;BME280;62868;52.360;30.424;2023-05-10T06:21:31;1037.2;;;17.9;30.5
74437;BME280;62868;52.360;30.424;2023-05-10T06:26:49;1037.2;;;18.2;30.2
74437;BME280;62868;52.360;30.424;2023-05-10T06:31:39;1037.2;;;18.3;30
74437;BME280;62868;52.360;30.424;2023-05-10T06:36:31;1037.1;;;18.5;29.7
74437;BME280;62868;52.360;30.424;2023-05-10T06:41:41;1037.1;;;18.8;29.5
74437;BME280;62868;52.360;30.424;2023-05-10T06:46:57;1037.1;;;19.3;29.3
74437;BME280;62868;52.360;30.424;2023-05-10T06:51:25;1037.1;;;19.4;28.9
74437;BME280;62868;52.360;30.424;2023-05-10T06:56:31;1037.1;;;19;28.7
74437;BME280;62868;52.360;30.424;2023-05-10T07:01:39;1037.1;;;19;28.4
74437;BME280;62868;52.360;30.424;2023-05-10T07:06:55;1037;;;18.9;28.1
74437;BME280;62868;52.360;30.424;2023-05-10T07:11:45;1037;;;18.8;27.9
74437;BME280;62868;52.360;30.424;2023-05-10T07:16:23;1037;;;18.8;27.7
74437;BME280;62868;52.360;30.424;2023-05-10T07:21:59;1037;;;18.8;27.2
74437;BME280;62868;52.360;30.424;2023-05-10T07:26:39;1036.9;;;19;26.9
74437;BME280;62868;52.360;30.424;2023-05-10T07:31:25;1037;;;18.3;26.8
74437;BME280;62868;52.360;30.424;2023-05-10T07:36:23;1036.9;;;17.8;27
74437;BME280;62868;52.360;30.424;2023-05-10T07:41:59;1036.9;;;18.2;26.6
74437;BME280;62868;52.360;30.424;2023-05-10T07:46:17;1036.9;;;17.8;26.5
74437;BME280;62868;52.360;30.424;2023-05-10T07:51:57;1036.9;;;17.3;26.5
74437;BME280;62868;52.360;30.424;2023-05-10T07:56:57;1036.9;;;17.1;26.3
74437;BME280;62868;52.360;30.424;2023-05-10T08:01:25;1036.9;;;17.4;26
74437;BME280;62868;52.360;30.424;2023-05-10T08:06:33;1036.9;;;17.3;25.9
74437;BME280;62868;52.360;30.424;2023-05-10T08:11:47;1036.9;;;17.3;25.8
74437;BME280;62868;52.360;30.424;2023-05-10T08:16:57;1037;;;17.5;25.6
74437;BME280;62868;52.360;30.424;2023-05-10T08:21:57;1036.9;;;17.6;25.4
74437;BME280;62868;52.360;30.424;2023-05-10T08:26:17;1036.9;;;18;25.2
74437;BME280;62868;52.360;30.424;2023-05-10T08:31:59;1036.8;;;18.3;24.9
74437;BME280;62868;52.360;30.424;2023-05-10T08:36:49;1036.8;;;18.6;24.7
74437;BME280;62868;52.360;30.424;2023-05-10T08:41:25;1036.8;;;19.3;24.3
74437;BME280;62868;52.360;30.424;2023-05-10T08:46:33;1036.8;;;19.6;24
74437;BME280;62868;52.360;30.424;2023-05-10T08:52:01;1036.7;;;19.9;23.9
74437;BME280;62868;52.360;30.424;2023-05-10T08:56:17;1036.7;;;20.1;23.8
74437;BME280;62868;52.360;30.424;2023-05-10T09:01:33;1036.7;;;19.3;24
74437;BME280;62868;52.360;30.424;2023-05-10T09:06:57;1036.7;;;19.1;24
74437;BME280;62868;52.360;30.424;2023-05-10T09:11:25;1036.7;;;19.2;23.8
74437;BME280;62868;52.360;30.424;2023-05-10T09:16:33;1036.6;;;19.6;23.5
74437;BME280;62868;52.360;30.424;2023-05-10T09:21:39;1036.6;;;20.1;23.2
74437;BME280;62868;52.360;30.424;2023-05-10T09:26:17;1036.5;;;20.3;22.7
74437;BME280;62868;52.360;30.424;2023-05-10T09:31:50;1036.4;;;20.4;22.5
74437;BME280;62868;52.360;30.424;2023-05-10T09:36:49;1036.4;;;20.9;22.3
74437;BME280;62868;52.360;30.424;2023-05-10T09:41:55;1036.3;;;21.4;22.1
74437;BME280;62868;52.360;30.424;2023-05-10T09:46:41;1036.3;;;21.2;22.3
74437;BME280;62868;52.360;30.424;2023-05-10T09:52:01;1036.3;;;21.3;21.9
74437;BME280;62868;52.360;30.424;2023-05-10T09:56:33;1036.2;;;21.4;21.7
74437;BME280;62868;52.360;30.424;2023-05-10T10:01:17;1036.2;;;21.8;21.4
74437;BME280;62868;52.360;30.424;2023-05-10T10:06:35;1036.1;;;22.2;21.1
74437;BME280;62868;52.360;30.424;2023-05-10T10:12:00;1036.1;;;21.8;20.9
74437;BME280;62868;52.360;30.424;2023-05-10T10:16:31;1036.1;;;21.8;21
74437;BME280;62868;52.360;30.424;2023-05-10T10:21:31;1035.9;;;22.4;20.8
74437;BME280;62868;52.360;30.424;2023-05-10T10:27:04;1035.9;;;22.4;20.9
74437;BME280;62868;52.360;30.424;2023-05-10T10:31:39;1035.9;;;22.5;20.8
74437;BME280;62868;52.360;30.424;2023-05-10T10:36:17;1035.8;;;23;20.6
74437;BME280;62868;52.360;30.424;2023-05-10T10:41:34;1035.8;;;23.1;20.4
74437;BME280;62868;52.360;30.424;2023-05-10T10:46:58;1035.7;;;23.2;20.3
74437;BME280;62868;52.360;30.424;2023-05-10T10:51:17;1035.7;;;23.7;20.2
74437;BME280;62868;52.360;30.424;2023-05-10T10:57:11;1035.6;;;23.9;20.1
74437;BME280;62868;52.360;30.424;2023-05-10T11:01:57;1035.5;;;23.9;20
74437;BME280;62868;52.360;30.424;2023-05-10T11:06:17;1035.6;;;23.7;19.8
74437;BME280;62868;52.360;30.424;2023-05-10T11:11:25;1035.5;;;23.5;19.9
74437;BME280;62868;52.360;30.424;2023-05-10T11:16:47;1035.6;;;23.3;20
74437;BME280;62868;52.360;30.424;2023-05-10T11:21:45;1035.5;;;22.6;20.3
74437;BME280;62868;52.360;30.424;2023-05-10T11:26:50;1035.5;;;21.9;20.5
74437;BME280;62868;52.360;30.424;2023-05-10T11:31:48;1035.5;;;21.4;20.6
74437;BME280;62868;52.360;30.424;2023-05-10T11:36:57;1035.4;;;21.3;20.7
74437;BME280;62868;52.360;30.424;2023-05-10T11:41:41;1035.4;;;22;20.3
74437;BME280;62868;52.360;30.424;2023-05-10T11:46:18;1035.3;;;22.1;20.3
74437;BME280;62868;52.360;30.424;2023-05-10T11:51:19;1035.3;;;22;20.3
74437;BME280;62868;52.360;30.424;2023-05-10T11:56:57;1035.3;;;21.1;20.6
74437;BME280;62868;52.360;30.424;2023-05-10T12:01:26;1035.3;;;20.9;20.7
74437;BME280;62868;52.360;30.424;2023-05-10T12:06:49;1035.3;;;20.9;20.6
74437;BME280;62868;52.360;30.424;2023-05-10T12:11:49;1035.2;;;21.4;20.5
74437;BME280;62868;52.360;30.424;2023-05-10T12:16:28;1035.2;;;21.9;20.2
74437;BME280;62868;52.360;30.424;2023-05-10T12:21:33;1035.1;;;21.8;20.1
74437;BME280;62868;52.360;30.424;2023-05-10T12:26:31;1035.2;;;21.1;20.5
74437;BME280;62868;52.360;30.424;2023-05-10T12:31:17;1035.1;;;20.5;20.7
74437;BME280;62868;52.360;30.424;2023-05-10T12:36:41;1035.1;;;20.2;20.8
74437;BME280;62868;52.360;30.424;2023-05-10T12:41:41;1035.1;;;20.1;20.8
74437;BME280;62868;52.360;30.424;2023-05-10T12:46:17;1035.1;;;19.9;20.9
74437;BME280;62868;52.360;30.424;2023-05-10T12:51:41;1035.1;;;20;20.9
74437;BME280;62868;52.360;30.424;2023-05-10T12:56:57;1035.1;;;20;21
74437;BME280;62868;52.360;30.424;2023-05-10T13:01:31;1035.1;;;19.8;21.1
74437;BME280;62868;52.360;30.424;2023-05-10T13:06:37;1035;;;19.4;21.2
74437;BME280;62868;52.360;30.424;2023-05-10T13:11:27;1035;;;19.3;21.4
74437;BME280;62868;52.360;30.424;2023-05-10T13:17:01;1035;;;19.3;21.4
74437;BME280;62868;52.360;30.424;2023-05-10T13:21:17;1035;;;19.4;21.4
74437;BME280;62868;52.360;30.424;2023-05-10T13:26:33;1034.9;;;19.9;21.2
74437;BME280;62868;52.360;30.424;2023-05-10T13:32:01;1034.9;;;19.8;21.2
74437;BME280;62868;52.360;30.424;2023-05-10T13:36:41;1034.8;;;20;21.2
74437;BME280;62868;52.360;30.424;2023-05-10T13:41:33;1034.8;;;21;20.9
74437;BME280;62868;52.360;30.424;2023-05-10T13:46:31;1034.7;;;21.9;20.7
74437;BME280;62868;52.360;30.424;2023-05-10T13:51:59;1034.7;;;21.7;20.8
74437;BME280;62868;52.360;30.424;2023-05-10T13:56:39;1034.7;;;21.7;20.8
74437;BME280;62868;52.360;30.424;2023-05-10T14:02:00;1034.8;;;21;21
74437;BME280;62868;52.360;30.424;2023-05-10T14:06:59;1034.8;;;19.8;21.3
74437;BME280;62868;52.360;30.424;2023-05-10T14:11:27;1034.8;;;19.1;21.6
74437;BME280;62868;52.360;30.424;2023-05-10T14:16:35;1034.8;;;18.5;21.7
74437;BME280;62868;52.360;30.424;2023-05-10T14:21:49;1034.8;;;18;21.9
74437;BME280;62868;52.360;30.424;2023-05-10T14:26:43;1034.8;;;17.9;22
74437;BME280;62868;52.360;30.424;2023-05-10T14:31:51;1034.7;;;18;22
74437;BME280;62868;52.360;30.424;2023-05-10T14:36:17;1034.7;;;18.2;21.9
74437;BME280;62868;52.360;30.424;2023-05-10T14:41:59;1034.7;;;18.4;21.8
74437;BME280;62868;52.360;30.424;2023-05-10T14:46:43;1034.7;;;18.3;21.8
74437;BME280;62868;52.360;30.424;2023-05-10T14:51:31;1034.6;;;18.4;21.8
74437;BME280;62868;52.360;30.424;2023-05-10T14:56:49;1034.6;;;18.4;21.8
74437;BME280;62868;52.360;30.424;2023-05-10T15:01:59;1034.6;;;18.5;21.8
74437;BME280;62868;52.360;30.424;2023-05-10T15:06:30;1034.6;;;18.5;22
74437;BME280;62868;52.360;30.424;2023-05-10T15:11:49;1034.7;;;18.3;22.1
74437;BME280;62868;52.360;30.424;2023-05-10T15:16:49;1034.7;;;18.1;22.2
74437;BME280;62868;52.360;30.424;2023-05-10T15:21:17;1034.7;;;17.8;22.3
74437;BME280;62868;52.360;30.424;2023-05-10T15:26:43;1034.7;;;17.6;22.4
74437;BME280;62868;52.360;30.424;2023-05-10T15:31:41;1034.6;;;17.4;22.5
74437;BME280;62868;52.360;30.424;2023-05-10T15:36:17;1034.6;;;17.2;22.7
74437;BME280;62868;52.360;30.424;2023-05-10T15:41:52;1034.7;;;17.2;22.9
74437;BME280;62868;52.360;30.424;2023-05-10T15:46:59;1034.7;;;17;23.1
74437;BME280;62868;52.360;30.424;2023-05-10T15:51:25;1034.7;;;16.8;23.2
74437;BME280;62868;52.360;30.424;2023-05-10T15:56:43;1034.7;;;16.8;23.2
74437;BME280;62868;52.360;30.424;2023-05-10T16:02:00;1034.7;;;16.8;23.3
74437;BME280;62868;52.360;30.424;2023-05-10T16:06:34;1034.7;;;16.7;23.4
74437;BME280;62868;52.360;30.424;2023-05-10T16:11:36;1034.7;;;16.6;23.5
74437;BME280;62868;52.360;30.424;2023-05-10T16:16:26;1034.7;;;16.5;23.6
74437;BME280;62868;52.360;30.424;2023-05-10T16:22:00;1034.7;;;16.4;23.8
74437;BME280;62868;52.360;30.424;2023-05-10T16:26:33;1034.7;;;16.4;23.8
74437;BME280;62868;52.360;30.424;2023-05-10T16:31:24;1034.7;;;16.1;24.3
74437;BME280;62868;52.360;30.424;2023-05-10T16:36:59;1034.7;;;16;24.5
74437;BME280;62868;52.360;30.424;2023-05-10T16:41:41;1034.7;;;15.9;24.7
74437;BME280;62868;52.360;30.424;2023-05-10T16:46:17;1034.7;;;15.7;24.9
74437;BME280;62868;52.360;30.424;2023-05-10T16:51:17;1034.7;;;15.6;25.1
74437;BME280;62868;52.360;30.424;2023-05-10T16:57:00;1034.7;;;15.5;25.2
74437;BME280;62868;52.360;30.424;2023-05-10T17:01:32;1034.7;;;15.4;25.3
74437;BME280;62868;52.360;30.424;2023-05-10T17:07:00;1034.7;;;15.4;25.4
74437;BME280;62868;52.360;30.424;2023-05-10T17:12:00;1034.7;;;15.3;25.6
74437;BME280;62868;52.360;30.424;2023-05-10T17:16:28;1034.7;;;15.1;25.9
74437;BME280;62868;52.360;30.424;2023-05-10T17:21:52;1034.8;;;15;26.2
74437;BME280;62868;52.360;30.424;2023-05-10T17:26:30;1034.8;;;14.8;26.5
74437;BME280;62868;52.360;30.424;2023-05-10T17:31:44;1034.8;;;14.5;27.1
74437;BME280;62868;52.360;30.424;2023-05-10T17:36:50;1034.9;;;14.2;27.6
74437;BME280;62868;52.360;30.424;2023-05-10T17:41:40;1034.9;;;14;28
74437;BME280;62868;52.360;30.424;2023-05-10T17:47:00;1034.9;;;13.7;28.3
74437;BME280;62868;52.360;30.424;2023-05-10T17:51:44;1035;;;13.5;28.6
74437;BME280;62868;52.360;30.424;2023-05-10T17:56:18;1035;;;13.1;29
74437;BME280;62868;52.360;30.424;2023-05-10T18:01:18;1035;;;12.9;29.3
74437;BME280;62868;52.360;30.424;2023-05-10T18:07:00;1035.1;;;12.6;29.8
74437;BME280;62868;52.360;30.424;2023-05-10T18:11:18;1035.1;;;12.3;30.1
74437;BME280;62868;52.360;30.424;2023-05-10T18:16:50;1035.2;;;12.1;30.6
74437;BME280;62868;52.360;30.424;2023-05-10T18:21:49;1035.2;;;11.8;31
74437;BME280;62868;52.360;30.424;2023-05-10T18:26:26;1035.2;;;11.6;31.4
74437;BME280;62868;52.360;30.424;2023-05-10T18:31:44;1035.3;;;11.4;31.6
74437;BME280;62868;52.360;30.424;2023-05-10T18:36:40;1035.3;;;11.2;32
74437;BME280;62868;52.360;30.424;2023-05-10T18:41:18;1035.4;;;11;32.5
74437;BME280;62868;52.360;30.424;2023-05-10T18:46:52;1035.4;;;10.8;32.9
74437;BME280;62868;52.360;30.424;2023-05-10T18:52:00;1035.4;;;10.6;33.3
74437;BME280;62868;52.360;30.424;2023-05-10T18:56:28;1035.4;;;10.4;33.8
74437;BME280;62868;52.360;30.424;2023-05-10T19:02:00;1035.4;;;10.3;34.1
74437;BME280;62868;52.360;30.424;2023-05-10T19:06:52;1035.4;;;10.1;34.6
74437;BME280;62868;52.360;30.424;2023-05-10T19:11:50;1035.4;;;9.9;35
74437;BME280;62868;52.360;30.424;2023-05-10T19:16:18;1035.4;;;9.8;35.1
74437;BME280;62868;52.360;30.424;2023-05-10T19:21:50;1035.4;;;9.7;35.3
74437;BME280;62868;52.360;30.424;2023-05-10T19:27:00;1035.4;;;9.5;35.9
74437;BME280;62868;52.360;30.424;2023-05-10T19:32:04;1035.4;;;9.4;36.2
74437;BME280;62868;52.360;30.424;2023-05-10T19:36:18;1035.4;;;9.3;36.4
74437;BME280;62868;52.360;30.424;2023-05-10T19:42:04;1035.4;;;9.2;36.7
74437;BME280;62868;52.360;30.424;2023-05-10T19:46:54;1035.4;;;9.1;37
74437;BME280;62868;52.360;30.424;2023-05-10T19:51:28;1035.4;;;9;37.3
74437;BME280;62868;52.360;30.424;2023-05-10T19:56:26;1035.4;;;8.9;37.4
74437;BME280;62868;52.360;30.424;2023-05-10T20:02:00;1035.3;;;8.8;37.7
74437;BME280;62868;52.360;30.424;2023-05-10T20:06:18;1035.3;;;8.7;38
74437;BME280;62868;52.360;30.424;2023-05-10T20:12:00;1035.3;;;8.6;38.3
74437;BME280;62868;52.360;30.424;2023-05-10T20:17:00;1035.3;;;8.5;38.6
74437;BME280;62868;52.360;30.424;2023-05-10T20:21:18;1035.3;;;8.4;39
74437;BME280;62868;52.360;30.424;2023-05-10T20:26:28;1035.3;;;8.3;39.3
74437;BME280;62868;52.360;30.424;2023-05-10T20:31:52;1035.3;;;8.2;39.5
74437;BME280;62868;52.360;30.424;2023-05-10T20:36:46;1035.3;;;8.2;39.7
74437;BME280;62868;52.360;30.424;2023-05-10T20:41:50;1035.3;;;8.1;39.8
74437;BME280;62868;52.360;30.424;2023-05-10T20:46:18;1035.4;;;8;40.1
74437;BME280;62868;52.360;30.424;2023-05-10T20:51:54;1035.4;;;7.9;40.5
74437;BME280;62868;52.360;30.424;2023-05-10T20:56:46;1035.4;;;7.8;40.7
74437;BME280;62868;52.360;30.424;2023-05-10T21:01:18;1035.4;;;7.7;41
74437;BME280;62868;52.360;30.424;2023-05-10T21:06:34;1035.4;;;7.5;41.3
74437;BME280;62868;52.360;30.424;2023-05-10T21:11:58;1035.4;;;7.5;41.5
74437;BME280;62868;52.360;30.424;2023-05-10T21:16:34;1035.4;;;7.4;41.7
74437;BME280;62868;52.360;30.424;2023-05-10T21:22:00;1035.4;;;7.4;41.7
74437;BME280;62868;52.360;30.424;2023-05-10T21:26:20;1035.3;;;7.3;41.9
74437;BME280;62868;52.360;30.424;2023-05-10T21:31:18;1035.3;;;7.3;42.1
74437;BME280;62868;52.360;30.424;2023-05-10T21:37:00;1035.4;;;7.2;42.4
74437;BME280;62868;52.360;30.424;2023-05-10T21:41:42;1035.4;;;7.2;42.7
74437;BME280;62868;52.360;30.424;2023-05-10T21:46:28;1035.4;;;7.1;43
74437;BME280;62868;52.360;30.424;2023-05-10T21:51:52;1035.4;;;7;43.3
74437;BME280;62868;52.360;30.424;2023-05-10T21:57:02;1035.4;;;6.9;43.5
74437;BME280;62868;52.360;30.424;2023-05-10T22:01:42;1035.4;;;6.9;43.7
74437;BME280;62868;52.360;30.424;2023-05-10T22:06:44;1035.4;;;6.8;43.7
74437;BME280;62868;52.360;30.424;2023-05-10T22:11:54;1035.4;;;6.7;43.9
74437;BME280;62868;52.360;30.424;2023-05-10T22:16:50;1035.4;;;6.7;44.1
74437;BME280;62868;52.360;30.424;2023-05-10T22:21:36;1035.4;;;6.6;44.4
74437;BME280;62868;52.360;30.424;2023-05-10T22:26:52;1035.4;;;6.6;44.6
74437;BME280;62868;52.360;30.424;2023-05-10T22:32:00;1035.4;;;6.5;44.8
74437;BME280;62868;52.360;30.424;2023-05-10T22:37:00;1035.4;;;6.5;45
74437;BME280;62868;52.360;30.424;2023-05-10T22:41:18;1035.4;;;6.4;45.2
74437;BME280;62868;52.360;30.424;2023-05-10T22:46:42;1035.4;;;6.4;45.3
74437;BME280;62868;52.360;30.424;2023-05-10T22:51:44;1035.5;;;6.4;45.4
74437;BME280;62868;52.360;30.424;2023-05-10T22:56:28;1035.5;;;6.3;45.6
74437;BME280;62868;52.360;30.424;2023-05-10T23:01:18;1035.5;;;6.3;45.9
74437;BME280;62868;52.360;30.424;2023-05-10T23:06:58;1035.5;;;6.3;45.9
74437;BME280;62868;52.360;30.424;2023-05-10T23:11:18;1035.5;;;6.3;46.1
74437;BME280;62868;52.360;30.424;2023-05-10T23:16:48;1035.5;;;6.3;46.4
74437;BME280;62868;52.360;30.424;2023-05-10T23:21:58;1035.5;;;6.2;46.6
74437;BME280;62868;52.360;30.424;2023-05-10T23:26:18;1035.5;;;6.2;46.8
74437;BME280;62868;52.360;30.424;2023-05-10T23:31:34;1035.5;;;6.1;46.9
74437;BME280;62868;52.360;30.424;2023-05-10T23:36:38;1035.7;;;6.1;46.9
74437;BME280;62868;52.360;30.424;2023-05-10T23:41:26;1035.7;;;6.1;47
74437;BME280;62868;52.360;30.424;2023-05-10T23:46:50;1035.7;;;6;47.1
74437;BME280;62868;52.360;30.424;2023-05-10T23:51:18;1035.7;;;6;47.2
74437;BME280;62868;52.360;30.424;2023-05-10T23:56:56;1035.7;;;6;47.5
